Time;durP1;ratioP1;P1;durP2;ratioP2;P2;SDS_P1;SDS_P2;PMS_P1;PMS_P2;Temp;Humidity;BMP_temperature;BMP_pressure;BME280_temperature;BME280_humidity;BME280_pressure;Samples;Min_cycle;Max_cycle;Signal;HPM_P1;HPM_P2
2022/03/07 00:02:11;;;;;;;0.20;0.20;;;;;;;19.02;35.82;102258.53;5138162;27;20511;-33
2022/03/07 00:04:38;;;;;;;0.20;0.20;;;;;;;19.02;35.70;102255.75;5146900;27;20103;-37
2022/03/07 00:07:03;;;;;;;0.30;0.30;;;;;;;19.04;35.64;102250.84;5142136;27;20046;-35
2022/03/07 00:09:29;;;;;;;0.20;0.20;;;;;;;19.03;35.63;102259.34;5145078;27;20046;-35
2022/03/07 00:11:55;;;;;;;0.20;0.20;;;;;;;19.05;35.63;102263.56;5139092;27;20046;-36
2022/03/07 00:14:20;;;;;;;0.20;0.20;;;;;;;19.04;35.47;102259.13;5133329;27;20053;-36
2022/03/07 00:16:46;;;;;;;0.20;0.20;;;;;;;19.03;35.68;102256.59;5112886;27;20439;-35
2022/03/07 00:19:12;;;;;;;0.25;0.25;;;;;;;19.03;35.78;102268.47;5133738;27;20046;-33
2022/03/07 00:21:38;;;;;;;0.30;0.30;;;;;;;19.02;35.73;102266.81;5125620;27;20043;-35
2022/03/07 00:24:06;;;;;;;0.30;0.30;;;;;;;19.04;35.67;102269.31;5130837;27;20035;-36
2022/03/07 00:26:32;;;;;;;0.20;0.20;;;;;;;19.02;35.70;102266.81;5115578;27;20501;-37
2022/03/07 00:28:58;;;;;;;0.20;0.20;;;;;;;19.03;35.50;102264.88;5132525;27;20169;-36
2022/03/07 00:31:23;;;;;;;0.43;0.43;;;;;;;19.04;35.53;102267.41;5129536;27;20051;-35
2022/03/07 00:33:50;;;;;;;0.20;0.20;;;;;;;19.04;35.65;102270.16;5128994;27;20504;-37
2022/03/07 00:36:17;;;;;;;0.30;0.30;;;;;;;19.05;35.38;102273.75;5109799;27;20384;-36
2022/03/07 00:38:42;;;;;;;0.20;0.20;;;;;;;19.04;35.50;102272.06;5132155;27;20065;-36
2022/03/07 00:41:09;;;;;;;0.30;0.30;;;;;;;19.03;35.44;102268.47;5126667;27;20047;-33
2022/03/07 00:43:35;;;;;;;0.20;0.20;;;;;;;19.03;35.46;102270.41;5129628;27;20082;-35
2022/03/07 00:46:01;;;;;;;0.20;0.20;;;;;;;19.04;35.60;102275.69;5132593;27;20091;-33
2022/03/07 00:48:26;;;;;;;0.30;0.30;;;;;;;19.02;35.53;102275.09;5127049;27;20065;-34
2022/03/07 00:50:52;;;;;;;0.20;0.20;;;;;;;19.02;35.52;102272.31;5129546;27;20046;-32
2022/03/07 00:53:21;;;;;;;0.30;0.30;;;;;;;19.02;35.57;102286.13;5131282;27;20050;-33
2022/03/07 00:55:47;;;;;;;0.30;0.30;;;;;;;19.04;35.65;102274.81;5110380;27;20126;-36
2022/03/07 00:58:13;;;;;;;0.20;0.20;;;;;;;19.04;35.48;102272.06;5130727;27;20544;-33
2022/03/07 01:00:39;;;;;;;0.20;0.20;;;;;;;19.03;35.60;102278.69;5127458;27;20070;-36
2022/03/07 01:03:06;;;;;;;0.40;0.40;;;;;;;19.02;35.70;102275.09;5126969;27;20088;-33
2022/03/07 01:05:32;;;;;;;0.20;0.20;;;;;;;19.03;35.46;102281.44;5130124;27;20421;-33
2022/03/07 01:07:58;;;;;;;0.20;0.20;;;;;;;19.02;35.29;102286.13;5127718;27;20046;-34
2022/03/07 01:10:23;;;;;;;0.20;0.20;;;;;;;19.03;35.65;102276.75;5132500;27;20058;-34
2022/03/07 01:12:50;;;;;;;0.20;0.20;;;;;;;19.04;35.50;102281.22;5127397;27;20058;-35
2022/03/07 01:15:15;;;;;;;0.30;0.30;;;;;;;19.03;35.60;102279.50;5126961;27;20070;-35
2022/03/07 01:17:42;;;;;;;0.30;0.30;;;;;;;19.02;35.56;102280.59;5128712;27;20097;-34
2022/03/07 01:20:09;;;;;;;0.30;0.30;;;;;;;19.03;35.42;102286.97;5128122;27;20043;-33
2022/03/07 01:22:35;;;;;;;0.20;0.20;;;;;;;19.01;35.56;102278.94;5127512;27;20128;-34
2022/03/07 01:25:02;;;;;;;0.20;0.20;;;;;;;19.04;35.58;102277.59;5131632;27;20493;-33
2022/03/07 01:27:28;;;;;;;0.25;0.25;;;;;;;19.02;35.41;102282.53;5114207;27;20051;-33
2022/03/07 01:29:54;;;;;;;0.30;0.30;;;;;;;19.01;35.50;102273.41;5129301;27;20054;-35
2022/03/07 01:32:20;;;;;;;0.30;0.30;;;;;;;19.01;35.54;102270.66;5128270;27;20047;-33
2022/03/07 01:34:46;;;;;;;0.30;0.30;;;;;;;19.02;35.79;102272.31;5126658;27;20050;-33
2022/03/07 01:37:12;;;;;;;0.20;0.20;;;;;;;19.00;35.33;102276.44;5114327;27;20044;-33
2022/03/07 01:39:37;;;;;;;0.20;0.20;;;;;;;19.02;35.64;102268.72;5131047;27;20125;-33
2022/03/07 01:42:03;;;;;;;0.28;0.28;;;;;;;19.00;35.33;102266.22;5127250;27;20043;-33
2022/03/07 01:44:29;;;;;;;0.20;0.20;;;;;;;19.00;35.70;102268.97;5133908;27;20079;-33
2022/03/07 01:46:56;;;;;;;0.30;0.30;;;;;;;19.01;35.48;102265.13;5128187;27;20058;-34
2022/03/07 01:49:23;;;;;;;0.20;0.20;;;;;;;18.99;35.65;102259.00;5132343;27;20043;-36
2022/03/07 01:51:49;;;;;;;0.30;0.30;;;;;;;19.00;35.53;102252.41;5125932;27;20092;-37
2022/03/07 01:54:17;;;;;;;0.20;0.20;;;;;;;19.00;35.54;102255.19;5130366;27;20466;-35
2022/03/07 01:56:45;;;;;;;0.20;0.20;;;;;;;19.01;35.62;102254.09;5113487;27;20152;-34
2022/03/07 01:59:12;;;;;;;0.20;0.20;;;;;;;19.00;35.54;102257.09;5129290;27;20529;-32
2022/03/07 02:01:38;;;;;;;0.30;0.30;;;;;;;19.00;35.62;102246.91;5124471;27;20505;-32
2022/03/07 02:04:04;;;;;;;0.20;0.20;;;;;;;18.98;35.58;102251.81;5128074;27;20039;-36
2022/03/07 02:06:31;;;;;;;0.30;0.30;;;;;;;18.99;35.30;102253.47;5125084;27;20046;-38
2022/03/07 02:08:57;;;;;;;0.25;0.25;;;;;;;19.01;35.58;102244.97;5128263;27;20047;-34
2022/03/07 02:11:24;;;;;;;0.20;0.20;;;;;;;19.00;35.57;102244.13;5128783;27;20070;-35
2022/03/07 02:13:50;;;;;;;0.30;0.30;;;;;;;19.00;35.38;102254.34;5119337;27;20042;-35
2022/03/07 02:16:17;;;;;;;0.20;0.20;;;;;;;19.00;35.54;102244.13;5127949;27;20061;-34
2022/03/07 02:18:43;;;;;;;0.30;0.30;;;;;;;18.99;35.41;102238.84;5129916;27;20145;-34
2022/03/07 02:21:11;;;;;;;0.30;0.30;;;;;;;19.00;35.59;102246.06;5129383;27;20413;-34
2022/03/07 02:23:37;;;;;;;0.20;0.20;;;;;;;18.99;35.63;102253.47;5133130;27;20445;-33
2022/03/07 02:26:13;;;;;;;0.30;0.30;;;;;;;19.00;35.44;102251.59;5132984;27;20462;-35
2022/03/07 02:28:40;;;;;;;0.20;0.20;;;;;;;18.99;35.56;102256.25;5130916;27;20039;-34
2022/03/07 02:31:05;;;;;;;0.20;0.20;;;;;;;18.99;35.47;102249.88;5128089;27;20063;-35
2022/03/07 02:33:33;;;;;;;0.30;0.30;;;;;;;18.98;35.40;102249.06;5129729;27;20055;-36
2022/03/07 02:35:58;;;;;;;0.20;0.20;;;;;;;18.98;35.50;102239.94;5129380;27;20598;-36
2022/03/07 02:38:24;;;;;;;0.20;0.20;;;;;;;19.00;35.57;102243.31;5130317;27;20043;-34
2022/03/07 02:40:50;;;;;;;0.20;0.20;;;;;;;18.98;35.54;102251.81;5133335;27;20047;-35
2022/03/07 02:43:16;;;;;;;0.30;0.30;;;;;;;18.98;35.41;102248.22;5125185;27;20054;-31
2022/03/07 02:45:42;;;;;;;0.30;0.30;;;;;;;18.97;35.43;102246.56;5126289;27;20417;-31
2022/03/07 02:48:08;;;;;;;0.20;0.20;;;;;;;18.98;35.53;102249.06;5127301;27;20040;-33
2022/03/07 02:50:34;;;;;;;0.20;0.20;;;;;;;18.96;35.59;102251.25;5129136;27;20095;-36
2022/03/07 02:52:59;;;;;;;0.20;0.20;;;;;;;18.98;35.50;102249.06;5129958;27;20052;-33
2022/03/07 02:55:25;;;;;;;0.20;0.20;;;;;;;18.97;35.67;102255.66;5131806;27;20047;-36
2022/03/07 02:57:51;;;;;;;0.30;0.30;;;;;;;18.96;35.59;102247.66;5128191;27;20062;-33
2022/03/07 03:00:17;;;;;;;0.30;0.30;;;;;;;18.97;35.65;102249.31;5131597;27;20149;-34
2022/03/07 03:02:46;;;;;;;0.30;0.30;;;;;;;18.98;35.57;102243.53;5109335;27;20134;-36
2022/03/07 03:05:12;;;;;;;0.20;0.20;;;;;;;19.00;35.65;102241.38;5123236;27;20039;-34
2022/03/07 03:07:38;;;;;;;0.30;0.30;;;;;;;18.99;35.29;102239.69;5133844;27;20050;-33
2022/03/07 03:10:05;;;;;;;0.20;0.20;;;;;;;18.98;35.30;102248.22;5109166;27;20051;-33
2022/03/07 03:12:30;;;;;;;0.20;0.20;;;;;;;18.96;35.39;102239.38;5126871;27;20047;-34
2022/03/07 03:14:56;;;;;;;0.20;0.20;;;;;;;18.95;35.51;102240.41;5134196;27;20087;-33
2022/03/07 03:17:22;;;;;;;0.25;0.25;;;;;;;18.97;35.44;102241.03;5129297;27;20216;-34
2022/03/07 03:19:48;;;;;;;0.20;0.20;;;;;;;18.97;35.37;102243.78;5136344;27;20082;-32
2022/03/07 03:22:14;;;;;;;0.20;0.20;;;;;;;18.97;35.34;102243.78;5126327;27;20184;-32
2022/03/07 03:24:39;;;;;;;0.20;0.20;;;;;;;18.98;35.39;102250.97;5130254;27;20541;-33
2022/03/07 03:27:05;;;;;;;0.30;0.30;;;;;;;18.97;35.62;102252.91;5130074;27;20051;-34
2022/03/07 03:29:31;;;;;;;0.30;0.30;;;;;;;18.97;35.60;102252.91;5135812;27;20043;-33
2022/03/07 03:31:57;;;;;;;0.20;0.20;;;;;;;18.95;35.45;102254.22;5123344;27;20047;-32
2022/03/07 03:34:23;;;;;;;0.20;0.20;;;;;;;18.96;35.50;102253.16;5134046;27;20035;-34
2022/03/07 03:36:49;;;;;;;0.20;0.20;;;;;;;18.96;35.61;102258.69;5126775;27;20074;-35
2022/03/07 03:39:15;;;;;;;0.28;0.28;;;;;;;18.98;35.46;102262.03;5126175;27;20410;-33
2022/03/07 03:41:40;;;;;;;0.20;0.20;;;;;;;18.98;35.45;102253.75;5124382;27;20047;-37
2022/03/07 03:44:06;;;;;;;0.20;0.20;;;;;;;18.95;35.34;102263.34;5131563;27;20082;-33
2022/03/07 03:46:32;;;;;;;0.20;0.20;;;;;;;18.97;35.51;102260.34;5129476;27;20039;-35
2022/03/07 03:48:59;;;;;;;0.20;0.20;;;;;;;18.96;35.51;102267.81;5129422;27;20642;-34
2022/03/07 03:51:25;;;;;;;0.20;0.20;;;;;;;18.96;35.42;102264.22;5129510;27;20047;-35
2022/03/07 03:53:51;;;;;;;0.20;0.20;;;;;;;18.96;35.59;102267.81;5132582;27;20039;-33
2022/03/07 03:56:16;;;;;;;0.20;0.20;;;;;;;18.96;35.42;102276.09;5129705;27;20508;-35
2022/03/07 03:58:42;;;;;;;0.20;0.20;;;;;;;18.98;35.49;102270.31;5115934;27;20134;-37
2022/03/07 04:01:08;;;;;;;0.30;0.30;;;;;;;18.98;35.13;102265.63;5130609;27;20074;-33
2022/03/07 04:03:34;;;;;;;0.20;0.20;;;;;;;18.98;35.45;102278.59;5133129;27;20103;-33
2022/03/07 04:06:00;;;;;;;0.20;0.20;;;;;;;18.96;35.41;102275.25;5129023;27;20043;-33
2022/03/07 04:08:25;;;;;;;0.20;0.20;;;;;;;18.96;35.52;102275.25;5132736;27;20043;-34
2022/03/07 04:10:52;;;;;;;0.30;0.30;;;;;;;18.96;35.55;102280.78;5128670;27;20035;-33
2022/03/07 04:13:17;;;;;;;0.20;0.20;;;;;;;18.97;35.40;102275.00;5128789;27;20085;-37
2022/03/07 04:15:43;;;;;;;0.22;0.22;;;;;;;18.98;35.41;102278.59;5111826;27;20428;-35
2022/03/07 04:18:09;;;;;;;0.30;0.30;;;;;;;18.95;35.43;102281.84;5131845;27;20046;-33
2022/03/07 04:20:34;;;;;;;0.20;0.20;;;;;;;18.95;35.50;102282.66;5127688;27;20038;-33
2022/03/07 04:23:01;;;;;;;0.30;0.30;;;;;;;18.96;35.54;102283.53;5129276;27;20043;-33
2022/03/07 04:25:27;;;;;;;0.30;0.30;;;;;;;18.97;35.29;102282.44;5130877;27;20070;-31
2022/03/07 04:27:52;;;;;;;0.30;0.30;;;;;;;18.95;35.39;102281.84;5130320;27;20038;-32
2022/03/07 04:30:19;;;;;;;0.20;0.20;;;;;;;18.99;35.40;102283.00;5127250;27;20051;-33
2022/03/07 04:32:45;;;;;;;0.20;0.20;;;;;;;18.97;35.30;102282.44;5131098;27;20074;-33
2022/03/07 04:35:11;;;;;;;0.30;0.30;;;;;;;18.95;35.40;102279.06;5129931;27;20043;-33
2022/03/07 04:37:41;;;;;;;0.20;0.20;;;;;;;18.96;35.41;102270.56;5125990;27;20316;-34
2022/03/07 04:40:09;;;;;;;0.20;0.20;;;;;;;18.98;35.23;102282.19;5131500;27;20079;-36
2022/03/07 04:42:35;;;;;;;;;;;;;;;18.97;35.39;102282.44;5126346;27;20078;-32
2022/03/07 04:45:00;;;;;;;0.30;0.30;;;;;;;18.96;35.30;102280.78;5131734;27;19930;-33
2022/03/07 04:47:26;;;;;;;0.30;0.30;;;;;;;18.96;35.24;102278.00;5126855;27;20051;-37
2022/03/07 04:49:51;;;;;;;0.20;0.20;;;;;;;18.94;35.34;102283.75;5129537;27;20032;-31
2022/03/07 04:52:17;;;;;;;0.20;0.20;;;;;;;18.96;35.44;102275.25;5118840;27;20482;-37
2022/03/07 04:54:43;;;;;;;0.30;0.30;;;;;;;18.94;35.44;102286.53;5129406;27;20035;-34
2022/03/07 04:57:08;;;;;;;0.20;0.20;;;;;;;18.95;35.41;102281.84;5130281;27;20046;-35
2022/03/07 04:59:34;;;;;;;0.20;0.20;;;;;;;18.95;35.42;102287.34;5128058;27;20067;-33
2022/03/07 05:02:00;;;;;;;0.20;0.20;;;;;;;18.93;35.60;102284.00;5132751;27;20085;-33
2022/03/07 05:04:26;;;;;;;0.20;0.20;;;;;;;18.95;35.30;102285.44;5126352;27;20039;-38
2022/03/07 05:06:55;;;;;;;0.20;0.20;;;;;;;18.96;35.31;102284.38;5126904;27;20046;-35
2022/03/07 05:09:21;;;;;;;0.20;0.20;;;;;;;18.95;35.49;102287.34;5128358;27;20043;-33
2022/03/07 05:11:46;;;;;;;0.20;0.20;;;;;;;18.95;35.43;102287.34;5124855;27;20051;-35
2022/03/07 05:14:12;;;;;;;0.30;0.30;;;;;;;18.93;35.50;102282.09;5122890;27;20463;-33
2022/03/07 05:16:38;;;;;;;0.20;0.20;;;;;;;18.96;35.27;102294.56;5124561;27;20405;-34
2022/03/07 05:19:03;;;;;;;0.20;0.20;;;;;;;18.95;35.36;102285.44;5130740;27;20092;-33
2022/03/07 05:21:29;;;;;;;0.20;0.20;;;;;;;18.94;35.45;102292.03;5125795;27;20046;-34
2022/03/07 05:23:55;;;;;;;0.20;0.20;;;;;;;18.96;35.46;102291.81;5132601;27;20381;-35
2022/03/07 05:26:20;;;;;;;0.30;0.30;;;;;;;18.96;35.40;102300.09;5127830;27;20111;-32
2022/03/07 05:28:46;;;;;;;0.28;0.28;;;;;;;18.96;35.29;102298.16;5132060;27;20044;-34
2022/03/07 05:31:13;;;;;;;0.30;0.30;;;;;;;18.95;35.21;102298.41;5126796;27;20530;-32
2022/03/07 05:33:40;;;;;;;0.25;0.25;;;;;;;18.94;35.39;102297.56;5131114;27;20107;-33
2022/03/07 05:36:06;;;;;;;0.20;0.20;;;;;;;18.94;35.44;102293.97;5128336;27;20484;-33
2022/03/07 05:38:33;;;;;;;0.30;0.30;;;;;;;18.93;35.42;102298.66;5133007;27;20053;-35
2022/03/07 05:40:58;;;;;;;0.25;0.25;;;;;;;18.94;35.31;102297.56;5121874;27;20050;-36
2022/03/07 05:43:24;;;;;;;0.20;0.20;;;;;;;18.95;35.02;102292.88;5129984;27;20399;-34
2022/03/07 05:45:50;;;;;;;0.30;0.30;;;;;;;18.94;35.11;102297.56;5129444;27;20248;-33
2022/03/07 05:48:18;;;;;;;0.30;0.30;;;;;;;18.95;35.06;102290.13;5128335;27;20398;-33
2022/03/07 05:50:44;;;;;;;0.20;0.20;;;;;;;18.94;35.22;102299.50;5128891;27;20459;-33
2022/03/07 05:53:10;;;;;;;0.30;0.30;;;;;;;18.94;35.19;102303.09;5129890;27;20077;-32
2022/03/07 05:55:35;;;;;;;0.30;0.30;;;;;;;18.95;35.27;102296.47;5104118;27;20055;-33
2022/03/07 05:58:01;;;;;;;0.25;0.25;;;;;;;18.93;35.34;102290.38;5126000;27;20348;-34
2022/03/07 06:00:28;;;;;;;0.30;0.30;;;;;;;18.93;35.14;102295.88;5126793;27;20054;-37
2022/03/07 06:02:54;;;;;;;0.20;0.20;;;;;;;18.93;35.04;102298.66;5124129;27;20046;-33
2022/03/07 06:05:20;;;;;;;0.20;0.20;;;;;;;18.95;35.10;102296.47;5124082;27;20799;-31
2022/03/07 06:07:46;;;;;;;0.20;0.20;;;;;;;18.92;35.34;102299.75;5129210;27;20079;-33
2022/03/07 06:10:11;;;;;;;0.30;0.30;;;;;;;18.94;35.11;102307.78;5127817;27;20047;-34
2022/03/07 06:12:37;;;;;;;0.20;0.20;;;;;;;18.93;35.28;102306.94;5123270;27;20405;-37
2022/03/07 06:15:04;;;;;;;0.30;0.30;;;;;;;18.93;35.29;102309.69;5126700;27;20038;-37
2022/03/07 06:17:31;;;;;;;0.30;0.30;;;;;;;18.93;35.12;102306.94;5129294;27;20043;-35
2022/03/07 06:19:57;;;;;;;0.30;0.30;;;;;;;18.93;35.35;102314.38;5126928;27;20542;-36
2022/03/07 06:22:23;;;;;;;0.30;0.30;;;;;;;18.94;34.94;102316.06;5120193;27;20045;-34
2022/03/07 06:24:48;;;;;;;0.20;0.20;;;;;;;18.94;35.13;102313.28;5122215;27;20043;-34
2022/03/07 06:27:14;;;;;;;0.20;0.20;;;;;;;18.94;35.16;102318.81;5126886;27;20747;-36
2022/03/07 06:29:40;;;;;;;0.20;0.20;;;;;;;18.94;35.23;102316.06;5127646;27;20053;-34
2022/03/07 06:32:06;;;;;;;0.20;0.20;;;;;;;18.91;35.27;102317.41;5101737;28;20047;-34
2022/03/07 06:34:33;;;;;;;0.30;0.30;;;;;;;18.90;35.19;102315.69;5128645;27;20121;-33
2022/03/07 06:37:00;;;;;;;0.20;0.20;;;;;;;18.94;35.26;102321.56;5124282;27;20040;-34
2022/03/07 06:39:27;;;;;;;0.20;0.20;;;;;;;18.93;35.19;102323.50;5123644;27;20062;-38
2022/03/07 06:41:54;;;;;;;0.20;0.20;;;;;;;18.93;35.31;102328.19;5107939;27;20085;-33
2022/03/07 06:44:20;;;;;;;0.30;0.30;;;;;;;18.91;34.88;102324.81;5129223;27;20074;-41
2022/03/07 06:46:46;;;;;;;0.22;0.22;;;;;;;18.87;32.53;102327.25;5121604;27;20431;-40
2022/03/07 06:49:11;;;;;;;0.25;0.25;;;;;;;18.83;30.92;102328.81;5127616;27;20042;-37
2022/03/07 06:51:37;;;;;;;0.20;0.20;;;;;;;18.75;29.51;102323.69;5128037;27;20489;-39
2022/03/07 06:54:04;;;;;;;0.20;0.20;;;;;;;18.71;29.83;102326.09;5127333;27;20165;-39
2022/03/07 06:56:29;;;;;;;0.20;0.20;;;;;;;18.69;31.32;102331.00;5124019;27;20418;-39
2022/03/07 06:58:55;;;;;;;0.30;0.30;;;;;;;18.47;28.93;102324.41;5124724;27;20141;-40
2022/03/07 07:01:21;;;;;;;0.20;0.20;;;;;;;18.23;27.77;102324.44;5116084;27;20462;-39
2022/03/07 07:03:47;;;;;;;0.30;0.30;;;;;;;18.14;26.71;102325.91;5102198;27;20058;-40
2022/03/07 07:06:13;;;;;;;0.30;0.30;;;;;;;18.01;25.53;102328.91;5122116;27;20098;-39
2022/03/07 07:08:39;;;;;;;0.30;0.30;;;;;;;17.82;24.35;102336.41;5126235;27;20520;-41
2022/03/07 07:11:04;;;;;;;0.40;0.40;;;;;;;17.48;23.28;102336.06;5128330;27;20073;-39
2022/03/07 07:13:30;;;;;;;0.30;0.30;;;;;;;17.29;22.52;102342.72;5130593;27;20753;-39
2022/03/07 07:15:56;;;;;;;0.25;0.25;;;;;;;17.34;23.49;102336.50;5123163;27;20044;-39
2022/03/07 07:18:23;;;;;;;2.45;0.52;;;;;;;17.19;22.79;102343.28;5124969;27;20424;-40
2022/03/07 07:20:50;;;;;;;0.30;0.30;;;;;;;17.29;22.95;102343.56;5119727;27;20066;-39
2022/03/07 07:23:17;;;;;;;0.30;0.30;;;;;;;17.54;22.86;102340.66;5129133;27;20047;-40
2022/03/07 07:25:43;;;;;;;0.28;0.28;;;;;;;17.75;23.00;102347.56;5129689;27;20063;-38
2022/03/07 07:28:09;;;;;;;0.30;0.30;;;;;;;18.03;24.45;102349.59;5126005;27;20047;-40
2022/03/07 07:30:35;;;;;;;0.30;0.30;;;;;;;18.23;27.54;102353.94;5124475;27;20043;-39
2022/03/07 07:33:00;;;;;;;0.30;0.30;;;;;;;18.30;26.12;102355.47;5118196;27;20142;-41
2022/03/07 07:35:26;;;;;;;0.30;0.30;;;;;;;18.45;28.76;102352.25;5126571;27;20050;-40
2022/03/07 07:37:54;;;;;;;0.30;0.30;;;;;;;18.60;29.21;102353.66;5121681;27;20040;-38
2022/03/07 07:40:20;;;;;;;0.30;0.30;;;;;;;18.66;28.98;102355.47;5125747;27;20039;-39
2022/03/07 07:42:46;;;;;;;0.30;0.30;;;;;;;18.72;28.96;102349.84;5125554;27;20214;-41
2022/03/07 07:45:12;;;;;;;0.30;0.30;;;;;;;18.72;29.46;102352.59;5126050;27;20100;-41
2022/03/07 07:47:39;;;;;;;0.20;0.20;;;;;;;18.81;28.98;102347.53;5125310;27;20491;-39
2022/03/07 07:50:06;;;;;;;0.20;0.20;;;;;;;18.84;28.72;102352.56;5119653;27;20360;-39
2022/03/07 07:52:31;;;;;;;0.20;0.20;;;;;;;18.87;29.51;102356.75;5099173;28;20051;-39
2022/03/07 07:54:57;;;;;;;0.20;0.20;;;;;;;18.80;29.65;102351.38;5119597;27;20070;-41
2022/03/07 07:57:23;;;;;;;0.30;0.30;;;;;;;18.65;28.47;102360.16;5100987;27;20042;-38
2022/03/07 07:59:48;;;;;;;0.30;0.30;;;;;;;18.62;28.95;102357.88;5110475;27;20058;-41
2022/03/07 08:02:34;;;;;;;0.20;0.20;;;;;;;18.64;28.61;102355.69;5092400;27;20043;-38
2022/03/07 08:05:00;;;;;;;0.20;0.20;;;;;;;18.53;28.04;102356.56;5109171;27;20381;-41
2022/03/07 08:07:34;;;;;;;0.20;0.20;;;;;;;18.50;27.41;102357.03;5107927;27;20107;-40
2022/03/07 08:10:01;;;;;;;0.20;0.20;;;;;;;18.52;27.50;102360.38;5115460;27;20048;-38
2022/03/07 08:12:27;;;;;;;0.20;0.20;;;;;;;18.34;25.67;102364.13;5119792;27;20078;-38
2022/03/07 08:14:53;;;;;;;0.22;0.22;;;;;;;18.24;24.18;102361.13;5088777;27;20047;-35
2022/03/07 08:17:18;;;;;;;0.20;0.20;;;;;;;18.29;24.06;102350.22;5114181;27;20066;-40
2022/03/07 08:19:44;;;;;;;0.20;0.20;;;;;;;18.40;24.11;102357.66;5111917;27;20043;-33
2022/03/07 08:22:10;;;;;;;0.25;0.25;;;;;;;18.53;26.81;102362.91;5112673;27;20236;-33
2022/03/07 08:24:35;;;;;;;0.20;0.20;;;;;;;18.66;27.07;102370.09;5120150;27;20044;-33
2022/03/07 08:27:01;;;;;;;0.30;0.30;;;;;;;18.70;26.56;102370.50;5119586;27;20402;-33
2022/03/07 08:29:27;;;;;;;0.20;0.20;;;;;;;18.28;25.00;102363.16;5111378;27;20619;-41
2022/03/07 08:31:57;;;;;;;0.20;0.20;;;;;;;17.69;23.64;102367.75;5111137;27;20051;-42
2022/03/07 08:34:23;;;;;;;0.20;0.20;;;;;;;18.15;24.69;102365.34;5116007;27;20054;-37
2022/03/07 08:36:49;;;;;;;0.25;0.25;;;;;;;18.28;24.82;102360.41;5109797;27;20469;-39
2022/03/07 08:39:14;;;;;;;0.30;0.30;;;;;;;18.29;23.44;102358.50;5116190;27;20047;-39
2022/03/07 08:41:40;;;;;;;0.20;0.20;;;;;;;18.31;23.53;102361.88;5110477;27;20059;-39
2022/03/07 08:44:06;;;;;;;0.20;0.20;;;;;;;18.36;23.50;102358.38;5112082;27;20051;-36
2022/03/07 08:46:31;;;;;;;0.30;0.30;;;;;;;18.34;22.96;102360.53;5104953;27;20050;-39
2022/03/07 08:48:57;;;;;;;0.30;0.30;;;;;;;18.32;22.30;102358.03;5115065;27;20402;-35
2022/03/07 08:51:23;;;;;;;0.20;0.20;;;;;;;18.25;22.74;102358.13;5112633;27;20054;-36
2022/03/07 08:53:48;;;;;;;0.28;0.28;;;;;;;18.28;23.05;102360.41;5118328;27;20061;-37
2022/03/07 08:56:14;;;;;;;0.20;0.20;;;;;;;18.29;22.54;102359.31;5108741;27;20043;-38
2022/03/07 08:58:52;;;;;;;0.30;0.30;;;;;;;18.40;23.02;102357.66;5102133;27;20163;-39
2022/03/07 09:01:20;;;;;;;0.30;0.30;;;;;;;18.47;24.72;102363.88;5106739;27;20047;-41
2022/03/07 09:03:46;;;;;;;0.20;0.20;;;;;;;18.28;23.86;102359.56;5091326;27;20062;-40
2022/03/07 09:06:12;;;;;;;0.20;0.20;;;;;;;18.35;23.58;102364.94;5109236;27;20397;-37
2022/03/07 09:08:38;;;;;;;0.20;0.20;;;;;;;17.91;22.63;102364.44;5095181;27;20043;-38
2022/03/07 09:11:03;;;;;;;0.30;0.30;;;;;;;17.75;22.23;102366.84;5113556;27;20491;-39
2022/03/07 09:13:29;;;;;;;0.30;0.30;;;;;;;17.72;23.02;102366.44;5107313;27;20133;-39
2022/03/07 09:15:55;;;;;;;0.30;0.30;;;;;;;17.78;22.91;102368.25;5109731;27;20143;-37
2022/03/07 09:18:22;;;;;;;0.20;0.20;;;;;;;18.03;23.39;102354.28;5096743;27;20047;-37
2022/03/07 09:20:48;;;;;;;0.30;0.30;;;;;;;18.08;23.39;102346.13;5109800;27;20512;-38
2022/03/07 09:23:13;;;;;;;0.20;0.20;;;;;;;18.10;23.42;102354.19;5115912;27;20059;-38
2022/03/07 09:25:39;;;;;;;0.30;0.30;;;;;;;18.38;24.63;102347.94;5115199;27;20044;-38
2022/03/07 09:28:05;;;;;;;0.30;0.30;;;;;;;18.60;25.54;102351.75;5118713;27;20059;-39
2022/03/07 09:30:32;;;;;;;0.30;0.30;;;;;;;18.72;25.96;102349.00;5094391;27;20556;-41
2022/03/07 09:32:58;;;;;;;0.30;0.30;;;;;;;18.85;26.46;102345.97;5108112;27;20050;-35
2022/03/07 09:35:24;;;;;;;0.30;0.30;;;;;;;18.90;26.81;102340.53;5110185;27;20414;-40
2022/03/07 09:37:50;;;;;;;0.30;0.30;;;;;;;18.86;26.80;102333.00;5110806;27;20081;-40
2022/03/07 09:40:16;;;;;;;0.30;0.30;;;;;;;18.81;27.10;102339.25;5110183;27;20050;-40
2022/03/07 09:42:42;;;;;;;0.20;0.20;;;;;;;18.80;26.93;102335.66;5110054;27;20039;-42
2022/03/07 09:45:09;;;;;;;0.22;0.22;;;;;;;18.82;26.41;102329.88;5109399;27;20047;-40
2022/03/07 09:47:39;;;;;;;0.30;0.30;;;;;;;18.94;26.53;102333.44;5085853;28;20047;-46
2022/03/07 09:50:05;;;;;;;0.30;0.30;;;;;;;19.07;26.91;102335.09;5114199;27;20429;-39
2022/03/07 09:52:31;;;;;;;0.30;0.30;;;;;;;19.16;27.41;102327.25;5110196;27;20057;-41
2022/03/07 09:54:58;;;;;;;0.30;0.30;;;;;;;19.20;27.15;102320.97;5113291;27;20085;-39
2022/03/07 09:57:24;;;;;;;0.30;0.30;;;;;;;19.19;27.03;102321.25;5111020;27;20265;-41
2022/03/07 09:59:50;;;;;;;0.20;0.20;;;;;;;18.63;23.06;102320.06;5116201;27;20080;-39
2022/03/07 10:02:22;;;;;;;0.30;0.30;;;;;;;18.77;24.71;102324.25;5110270;27;20295;-38
2022/03/07 10:04:48;;;;;;;0.30;0.30;;;;;;;18.97;25.53;102310.88;5111520;27;20424;-32
2022/03/07 10:07:14;;;;;;;0.20;0.20;;;;;;;19.06;26.46;102303.03;5113829;27;20043;-42
2022/03/07 10:09:40;;;;;;;0.30;0.30;;;;;;;19.11;26.28;102308.66;5116819;27;20531;-41
2022/03/07 10:12:06;;;;;;;0.20;0.20;;;;;;;19.15;26.37;102307.06;5104643;27;20526;-41
2022/03/07 10:14:42;;;;;;;0.20;0.20;;;;;;;19.22;26.74;102299.50;5104709;27;20118;-40
2022/03/07 10:17:24;;;;;;;0.22;0.22;;;;;;;19.28;26.47;102305.94;5097017;27;20062;-39
2022/03/07 10:19:51;;;;;;;0.30;0.30;;;;;;;19.39;26.74;102307.81;5110246;27;20067;-32
2022/03/07 10:22:19;;;;;;;0.30;0.30;;;;;;;19.40;27.18;102301.19;5115070;27;20039;-41
2022/03/07 10:24:45;;;;;;;0.20;0.20;;;;;;;19.39;26.94;102306.97;5098447;27;20040;-39
2022/03/07 10:27:23;;;;;;;0.30;0.30;;;;;;;19.43;27.03;102299.84;5114253;27;20074;-41
2022/03/07 10:29:49;;;;;;;;;;;;;;;19.42;27.31;102296.25;5116153;27;20048;-41
2022/03/07 10:32:17;;;;;;;0.20;0.20;;;;;;;19.40;26.32;102283.78;5113103;27;19930;-37
2022/03/07 10:34:43;;;;;;;0.20;0.20;;;;;;;19.09;22.33;102291.50;5115683;27;20039;-39
2022/03/07 10:37:08;;;;;;;0.30;0.30;;;;;;;18.96;21.48;102287.13;5116608;27;20396;-40
2022/03/07 10:39:34;;;;;;;0.20;0.20;;;;;;;18.97;22.98;102294.31;5109966;27;20053;-40
2022/03/07 10:42:00;;;;;;;0.30;0.30;;;;;;;18.70;23.09;102285.78;5110879;27;20219;-41
2022/03/07 10:44:30;;;;;;;0.30;0.30;;;;;;;18.74;22.37;102288.91;5114728;27;20074;-39
2022/03/07 10:47:16;;;;;;;0.20;0.20;;;;;;;18.68;21.92;102282.38;5112159;27;20665;-38
2022/03/07 10:49:50;;;;;;;0.30;0.30;;;;;;;18.42;22.33;102283.75;5089588;27;20151;-40
2022/03/07 10:52:16;;;;;;;0.30;0.30;;;;;;;18.67;24.03;102283.47;5120433;27;20473;-36
2022/03/07 10:54:42;;;;;;;0.20;0.20;;;;;;;18.83;24.92;102281.06;5118430;27;20042;-41
2022/03/07 10:57:08;;;;;;;0.30;0.30;;;;;;;19.05;24.39;102273.75;5123014;27;20056;-40
2022/03/07 10:59:35;;;;;;;0.30;0.30;;;;;;;19.02;25.35;102275.09;5121298;27;20074;-40
2022/03/07 11:02:09;;;;;;;0.30;0.30;;;;;;;19.10;24.99;102251.75;5120741;27;20296;-39
2022/03/07 11:04:37;;;;;;;0.30;0.30;;;;;;;19.05;25.06;102263.56;5094084;27;20093;-42
2022/03/07 11:07:03;;;;;;;0.30;0.30;;;;;;;19.05;25.30;102262.72;5112793;27;20323;-39
2022/03/07 11:09:28;;;;;;;0.20;0.20;;;;;;;19.04;25.48;102259.13;5108581;27;20575;-42
2022/03/07 11:11:54;;;;;;;0.30;0.30;;;;;;;19.07;25.53;102254.19;5100777;27;20043;-40
2022/03/07 11:14:20;;;;;;;0.30;0.30;;;;;;;19.03;25.08;102253.84;5116206;27;20424;-39
2022/03/07 11:16:49;;;;;;;0.30;0.30;;;;;;;19.05;25.26;102248.91;5118086;27;20054;-47
2022/03/07 11:19:18;;;;;;;0.30;0.30;;;;;;;19.24;25.60;102244.00;5115338;27;20106;-39
2022/03/07 11:21:45;;;;;;;0.30;0.30;;;;;;;19.33;26.18;102236.97;5104973;27;20051;-33
2022/03/07 11:24:12;;;;;;;0.20;0.20;;;;;;;19.54;27.00;102232.63;5099749;27;20108;-32